Time;durP1;ratioP1;P1;durP2;ratioP2;P2;SDS_P1;SDS_P2;PMS_P1;PMS_P2;Temp;Humidity;BMP_temperature;BMP_pressure;BME280_temperature;BME280_humidity;BME280_pressure;Samples;Min_cycle;Max_cycle;Signal;HPM_P1;HPM_P2
2023/07/31 00:00:22;;;;;;;;;;;;;;;;;;5065540;28;5235;-58
2023/07/31 00:02:47;;;;;;;;;;;;;;;;;;5070849;28;5056;-58
2023/07/31 00:05:12;;;;;;;;;;;;;;;;;;5070952;28;1136;-59
2023/07/31 00:07:37;;;;;;;;;;;;;;;;;;5070730;28;5039;-59
2023/07/31 00:10:03;;;;;;;;;;;;;;;;;;5068276;28;4959;-59
2023/07/31 00:12:28;;;;;;;;;;;;;;;;;;5074883;28;4866;-59
2023/07/31 00:14:53;;;;;;;;;;;;;;;;;;5070756;28;5020;-59
2023/07/31 00:17:18;;;;;;;;;;;;;;;;;;5053020;28;1465;-59
2023/07/31 00:19:46;;;;;;;;;;;;;;;;;;5052521;28;5039;-59
2023/07/31 00:22:11;;;;;;;;;;;;;;;;;;5070221;28;4914;-59
2023/07/31 00:24:36;;;;;;;;;;;;;;;;;;5070658;28;5172;-59
2023/07/31 00:27:01;;;;;;;;;;;;;;;;;;5070479;28;4477;-59
2023/07/31 00:29:27;;;;;;;;;;;;;;;;;;5067155;28;1933;-60
2023/07/31 00:31:52;;;;;;;;;;;;;;;;;;5070460;28;5035;-59
2023/07/31 00:34:17;;;;;;;;;;;;;;;;;;5052148;28;4905;-59
2023/07/31 00:36:42;;;;;;;;;;;;;;;;;;5069811;28;5041;-59
2023/07/31 00:39:08;;;;;;;;;;;;;;;;;;5064520;28;4992;-59
2023/07/31 00:41:33;;;;;;;;;;;;;;;;;;5072417;28;1101;-59
2023/07/31 00:43:58;;;;;;;;;;;;;;;;;;5066473;28;4999;-59
2023/07/31 00:46:23;;;;;;;;;;;;;;;;;;5068634;28;5033;-59
2023/07/31 00:48:49;;;;;;;;;;;;;;;;;;5052827;28;5336;-58
2023/07/31 00:51:14;;;;;;;;;;;;;;;;;;5069320;28;5159;-59
2023/07/31 00:53:40;;;;;;;;;;;;;;;;;;5070509;28;1159;-59
2023/07/31 00:56:05;;;;;;;;;;;;;;;;;;5062302;28;5031;-59
2023/07/31 00:58:30;;;;;;;;;;;;;;;;;;5049390;28;5568;-60
2023/07/31 01:00:56;;;;;;;;;;;;;;;;;;5051017;28;4673;-59
2023/07/31 01:03:21;;;;;;;;;;;;;;;;;;5069683;28;5070;-59
2023/07/31 01:05:49;;;;;;;;;;;;;;;;;;5069899;28;4864;-59
2023/07/31 01:08:24;;;;;;;;;;;;;;;;;;5051388;28;1310;-59
2023/07/31 01:10:51;;;;;;;;;;;;;;;;;;5051741;28;5076;-59
2023/07/31 01:13:16;;;;;;;;;;;;;;;;;;5049220;28;4861;-59
2023/07/31 01:15:41;;;;;;;;;;;;;;;;;;5034838;28;5001;-59
2023/07/31 01:18:06;;;;;;;;;;;;;;;;;;5069441;28;5058;-58
2023/07/31 01:20:32;;;;;;;;;;;;;;;;;;5051877;28;1240;-58
2023/07/31 01:23:12;;;;;;;;;;;;;;;;;;5077102;28;5082;-59
2023/07/31 01:25:56;;;;;;;;;;;;;;;;;;5069495;28;4975;-59
2023/07/31 01:28:48;;;;;;;;;;;;;;;;;;5045542;28;4569;-59
2023/07/31 01:31:22;;;;;;;;;;;;;;;;;;5039615;28;4506;-59
2023/07/31 01:33:47;;;;;;;;;;;;;;;;;;5069274;28;4991;-60
2023/07/31 01:36:12;;;;;;;;;;;;;;;;;;5070680;28;5058;-59
2023/07/31 01:38:37;;;;;;;;;;;;;;;;;;5050117;28;2352;-59
2023/07/31 01:41:03;;;;;;;;;;;;;;;;;;5068813;28;4967;-59
2023/07/31 01:43:28;;;;;;;;;;;;;;;;;;5067607;28;4422;-59
2023/07/31 01:45:53;;;;;;;;;;;;;;;;;;5066043;28;4604;-59
2023/07/31 01:48:18;;;;;;;;;;;;;;;;;;5050200;28;5748;-59
2023/07/31 01:50:44;;;;;;;;;;;;;;;;;;5075189;28;4981;-59
2023/07/31 01:53:09;;;;;;;;;;;;;;;;;;5067388;28;1395;-59
2023/07/31 01:55:34;;;;;;;;;;;;;;;;;;5067012;28;5033;-59
2023/07/31 01:57:59;;;;;;;;;;;;;;;;;;5067699;28;4452;-59
2023/07/31 02:00:25;;;;;;;;;;;;;;;;;;5049781;28;4632;-59
2023/07/31 02:02:50;;;;;;;;;;;;;;;;;;5067933;28;5046;-59
2023/07/31 02:05:15;;;;;;;;;;;;;;;;;;5076363;28;1096;-59
2023/07/31 02:07:40;;;;;;;;;;;;;;;;;;5068596;28;5083;-59
2023/07/31 02:10:06;;;;;;;;;;;;;;;;;;5064474;28;4940;-59
2023/07/31 02:12:32;;;;;;;;;;;;;;;;;;5068047;28;6175;-59
2023/07/31 02:14:57;;;;;;;;;;;;;;;;;;5068382;28;5214;-59
2023/07/31 02:17:22;;;;;;;;;;;;;;;;;;5068858;28;1200;-59
2023/07/31 02:19:48;;;;;;;;;;;;;;;;;;5069879;28;5081;-59
2023/07/31 02:22:13;;;;;;;;;;;;;;;;;;5066758;28;4644;-59
2023/07/31 02:24:38;;;;;;;;;;;;;;;;;;5068172;28;4656;-59
2023/07/31 02:27:03;;;;;;;;;;;;;;;;;;5068048;28;5083;-59
2023/07/31 02:29:29;;;;;;;;;;;;;;;;;;5066664;28;1983;-59
2023/07/31 02:31:54;;;;;;;;;;;;;;;;;;5067882;28;4841;-59
2023/07/31 02:34:19;;;;;;;;;;;;;;;;;;5072592;28;4485;-60
2023/07/31 02:36:44;;;;;;;;;;;;;;;;;;5067044;28;5061;-59
2023/07/31 02:39:10;;;;;;;;;;;;;;;;;;5067609;28;5206;-59
2023/07/31 02:41:35;;;;;;;;;;;;;;;;;;5068327;28;1124;-59
2023/07/31 02:44:00;;;;;;;;;;;;;;;;;;5066201;28;4817;-59
2023/07/31 02:46:25;;;;;;;;;;;;;;;;;;5066803;28;5457;-59
2023/07/31 02:48:51;;;;;;;;;;;;;;;;;;5068369;28;5166;-59
2023/07/31 02:51:16;;;;;;;;;;;;;;;;;;5049111;28;5298;-59
2023/07/31 02:53:42;;;;;;;;;;;;;;;;;;5068644;28;1223;-59
2023/07/31 02:56:07;;;;;;;;;;;;;;;;;;5067797;28;4879;-60
2023/07/31 02:58:32;;;;;;;;;;;;;;;;;;5066566;28;4936;-59
2023/07/31 03:00:58;;;;;;;;;;;;;;;;;;5067034;28;4990;-59
2023/07/31 03:03:23;;;;;;;;;;;;;;;;;;5068035;28;4590;-59
2023/07/31 03:05:48;;;;;;;;;;;;;;;;;;5064105;28;5116;-59
2023/07/31 03:08:14;;;;;;;;;;;;;;;;;;5061411;28;1190;-59
2023/07/31 03:10:39;;;;;;;;;;;;;;;;;;5067698;28;4462;-59
2023/07/31 03:13:04;;;;;;;;;;;;;;;;;;5067252;28;4997;-59
2023/07/31 03:15:29;;;;;;;;;;;;;;;;;;5069502;28;4448;-60
2023/07/31 03:17:55;;;;;;;;;;;;;;;;;;5067317;28;4989;-59
2023/07/31 03:20:20;;;;;;;;;;;;;;;;;;5067741;28;1274;-60
2023/07/31 03:22:45;;;;;;;;;;;;;;;;;;5067700;28;4988;-59
2023/07/31 03:25:10;;;;;;;;;;;;;;;;;;5067394;28;4487;-60
2023/07/31 03:27:35;;;;;;;;;;;;;;;;;;5066885;28;5686;-59
2023/07/31 03:30:02;;;;;;;;;;;;;;;;;;5060629;28;5061;-59
2023/07/31 03:32:27;;;;;;;;;;;;;;;;;;5068032;28;1925;-60
2023/07/31 03:34:52;;;;;;;;;;;;;;;;;;5067060;28;5034;-59
2023/07/31 03:37:17;;;;;;;;;;;;;;;;;;5061008;28;5104;-59
2023/07/31 03:39:43;;;;;;;;;;;;;;;;;;5066757;28;4873;-60
2023/07/31 03:42:08;;;;;;;;;;;;;;;;;;5067069;28;5017;-59
2023/07/31 03:44:33;;;;;;;;;;;;;;;;;;5066739;28;1089;-60
2023/07/31 03:46:58;;;;;;;;;;;;;;;;;;5060402;28;4960;-59
2023/07/31 03:49:24;;;;;;;;;;;;;;;;;;5067232;28;4956;-60
2023/07/31 03:51:49;;;;;;;;;;;;;;;;;;5048567;28;5224;-59
2023/07/31 03:54:14;;;;;;;;;;;;;;;;;;5067195;28;4865;-59
2023/07/31 03:56:40;;;;;;;;;;;;;;;;;;5069561;28;1073;-59
2023/07/31 03:59:05;;;;;;;;;;;;;;;;;;5071045;28;5206;-59
2023/07/31 04:01:30;;;;;;;;;;;;;;;;;;5067251;28;4983;-59
2023/07/31 04:03:55;;;;;;;;;;;;;;;;;;5067212;28;5118;-59
2023/07/31 04:06:21;;;;;;;;;;;;;;;;;;5067096;28;4955;-59
2023/07/31 04:08:46;;;;;;;;;;;;;;;;;;5048825;28;4986;-59
2023/07/31 04:11:12;;;;;;;;;;;;;;;;;;5072690;28;1953;-59
2023/07/31 04:13:37;;;;;;;;;;;;;;;;;;5068555;28;4990;-59
2023/07/31 04:16:03;;;;;;;;;;;;;;;;;;5066615;28;4948;-59
2023/07/31 04:18:28;;;;;;;;;;;;;;;;;;5066704;28;4966;-59
2023/07/31 04:20:54;;;;;;;;;;;;;;;;;;5067161;28;5117;-59
2023/07/31 04:23:19;;;;;;;;;;;;;;;;;;5067307;28;1152;-59
2023/07/31 04:25:44;;;;;;;;;;;;;;;;;;5076865;28;5207;-59
2023/07/31 04:28:09;;;;;;;;;;;;;;;;;;5069594;28;4566;-59
2023/07/31 04:30:36;;;;;;;;;;;;;;;;;;5069522;28;5166;-59
2023/07/31 04:33:01;;;;;;;;;;;;;;;;;;5068932;28;5034;-59
2023/07/31 04:35:27;;;;;;;;;;;;;;;;;;5070930;28;1140;-59
2023/07/31 04:37:52;;;;;;;;;;;;;;;;;;5070053;28;5217;-59
2023/07/31 04:40:17;;;;;;;;;;;;;;;;;;5051137;28;5163;-60
2023/07/31 04:42:42;;;;;;;;;;;;;;;;;;5067947;28;4625;-59
2023/07/31 04:45:08;;;;;;;;;;;;;;;;;;5069988;28;5027;-59
2023/07/31 04:47:33;;;;;;;;;;;;;;;;;;5068997;28;1428;-59
2023/07/31 04:49:59;;;;;;;;;;;;;;;;;;5069699;28;5058;-59
2023/07/31 04:52:24;;;;;;;;;;;;;;;;;;5070093;28;5001;-59
2023/07/31 04:54:49;;;;;;;;;;;;;;;;;;5077624;28;5220;-60
2023/07/31 04:57:14;;;;;;;;;;;;;;;;;;5069802;28;4439;-59
2023/07/31 04:59:40;;;;;;;;;;;;;;;;;;5063394;28;3643;-59
2023/07/31 05:02:05;;;;;;;;;;;;;;;;;;5058599;28;4822;-59
2023/07/31 05:04:30;;;;;;;;;;;;;;;;;;5065011;28;5086;-61
2023/07/31 05:06:56;;;;;;;;;;;;;;;;;;5068616;28;4996;-59
2023/07/31 05:09:21;;;;;;;;;;;;;;;;;;5060168;28;5136;-59
2023/07/31 05:11:46;;;;;;;;;;;;;;;;;;5067259;28;5511;-59
2023/07/31 05:14:11;;;;;;;;;;;;;;;;;;5069758;28;1186;-58
2023/07/31 05:16:37;;;;;;;;;;;;;;;;;;5031956;28;5071;-59
2023/07/31 05:19:02;;;;;;;;;;;;;;;;;;5068337;28;5169;-58
2023/07/31 05:21:27;;;;;;;;;;;;;;;;;;5049714;28;4926;-58
2023/07/31 05:23:53;;;;;;;;;;;;;;;;;;5067350;28;5576;-58
2023/07/31 05:26:18;;;;;;;;;;;;;;;;;;5060968;28;3688;-58
2023/07/31 05:28:43;;;;;;;;;;;;;;;;;;5063636;28;4598;-59
2023/07/31 05:31:09;;;;;;;;;;;;;;;;;;5067400;28;4642;-58
2023/07/31 05:33:34;;;;;;;;;;;;;;;;;;5063583;28;5372;-57
2023/07/31 05:35:59;;;;;;;;;;;;;;;;;;5063107;28;5086;-53
2023/07/31 05:38:24;;;;;;;;;;;;;;;;;;5068309;28;3609;-55
2023/07/31 05:40:49;;;;;;;;;;;;;;;;;;5062085;28;4586;-54
2023/07/31 05:43:15;;;;;;;;;;;;;;;;;;5058807;28;4662;-55
2023/07/31 05:45:41;;;;;;;;;;;;;;;;;;5067165;28;4518;-52
2023/07/31 05:48:06;;;;;;;;;;;;;;;;;;5067196;28;5173;-55
2023/07/31 05:50:32;;;;;;;;;;;;;;;;;;5063814;28;4919;-54
2023/07/31 05:52:57;;;;;;;;;;;;;;;;;;5049692;28;5187;-55
2023/07/31 05:55:23;;;;;;;;;;;;;;;;;;5067620;28;4852;-55
2023/07/31 05:57:48;;;;;;;;;;;;;;;;;;5062200;28;4986;-55
2023/07/31 06:00:14;;;;;;;;;;;;;;;;;;5049677;28;5179;-56
2023/07/31 06:02:39;;;;;;;;;;;;;;;;;;5069078;28;1104;-56
2023/07/31 06:05:05;;;;;;;;;;;;;;;;;;5071623;28;4421;-55
2023/07/31 06:07:31;;;;;;;;;;;;;;;;;;5068400;28;5012;-55
2023/07/31 06:09:57;;;;;;;;;;;;;;;;;;5067242;28;4425;-54
2023/07/31 06:12:22;;;;;;;;;;;;;;;;;;5067904;28;4983;-55
2023/07/31 06:14:48;;;;;;;;;;;;;;;;;;5068280;28;4808;-53
2023/07/31 06:17:13;;;;;;;;;;;;;;;;;;5051633;28;1904;-54
2023/07/31 06:19:38;;;;;;;;;;;;;;;;;;5068325;28;4521;-54
2023/07/31 06:22:03;;;;;;;;;;;;;;;;;;5068341;28;5252;-53
2023/07/31 06:24:29;;;;;;;;;;;;;;;;;;5067638;28;4978;-56
2023/07/31 06:26:54;;;;;;;;;;;;;;;;;;5065775;28;5267;-58
2023/07/31 06:29:20;;;;;;;;;;;;;;;;;;5064268;28;1401;-56
2023/07/31 06:31:45;;;;;;;;;;;;;;;;;;5070455;28;4428;-55
2023/07/31 06:34:10;;;;;;;;;;;;;;;;;;5075625;28;4867;-56
2023/07/31 06:36:36;;;;;;;;;;;;;;;;;;5066931;28;5061;-56
2023/07/31 06:39:01;;;;;;;;;;;;;;;;;;5076493;28;5047;-56
2023/07/31 06:41:26;;;;;;;;;;;;;;;;;;5074880;28;1219;-56
2023/07/31 06:43:51;;;;;;;;;;;;;;;;;;5072944;28;4990;-56
2023/07/31 06:46:17;;;;;;;;;;;;;;;;;;5066159;28;4654;-56
2023/07/31 06:48:42;;;;;;;;;;;;;;;;;;5072665;28;4932;-56
2023/07/31 06:51:07;;;;;;;;;;;;;;;;;;5046960;28;5117;-56
2023/07/31 06:53:33;;;;;;;;;;;;;;;;;;5068208;28;1187;-56
2023/07/31 06:55:58;;;;;;;;;;;;;;;;;;5049443;28;5001;-56
2023/07/31 06:58:23;;;;;;;;;;;;;;;;;;5067640;28;4988;-56
2023/07/31 07:00:51;;;;;;;;;;;;;;;;;;5064382;28;4512;-56
2023/07/31 07:03:17;;;;;;;;;;;;;;;;;;5068079;28;5147;-56
2023/07/31 07:05:43;;;;;;;;;;;;;;;;;;5066817;28;4584;-55
2023/07/31 07:08:08;;;;;;;;;;;;;;;;;;5066874;28;1975;-56
2023/07/31 07:10:33;;;;;;;;;;;;;;;;;;5062274;28;4953;-56
2023/07/31 07:12:59;;;;;;;;;;;;;;;;;;5066987;28;4985;-56
2023/07/31 07:15:24;;;;;;;;;;;;;;;;;;5067542;28;4459;-56
2023/07/31 07:17:49;;;;;;;;;;;;;;;;;;5065151;28;5131;-56
2023/07/31 07:20:15;;;;;;;;;;;;;;;;;;5063925;28;3666;-56
2023/07/31 07:22:42;;;;;;;;;;;;;;;;;;5058052;28;5306;-55
2023/07/31 07:25:08;;;;;;;;;;;;;;;;;;5074682;28;4500;-63
2023/07/31 07:27:33;;;;;;;;;;;;;;;;;;5054637;28;4455;-61
2023/07/31 07:29:58;;;;;;;;;;;;;;;;;;5046585;28;5286;-58
2023/07/31 07:32:24;;;;;;;;;;;;;;;;;;5063985;28;3285;-55
2023/07/31 07:34:49;;;;;;;;;;;;;;;;;;5048479;28;5182;-54
2023/07/31 07:37:14;;;;;;;;;;;;;;;;;;5059867;28;4923;-54
2023/07/31 07:39:39;;;;;;;;;;;;;;;;;;5060909;28;4477;-59
2023/07/31 07:42:05;;;;;;;;;;;;;;;;;;5064959;28;4949;-54
2023/07/31 07:44:30;;;;;;;;;;;;;;;;;;5067670;28;3006;-54
2023/07/31 07:46:55;;;;;;;;;;;;;;;;;;5067239;28;4576;-53
2023/07/31 07:49:22;;;;;;;;;;;;;;;;;;5073087;28;4951;-56
2023/07/31 07:51:47;;;;;;;;;;;;;;;;;;5065079;28;5055;-56
2023/07/31 07:54:13;;;;;;;;;;;;;;;;;;5070125;28;5134;-55
2023/07/31 07:56:39;;;;;;;;;;;;;;;;;;5046111;28;2040;-57
2023/07/31 07:59:04;;;;;;;;;;;;;;;;;;5066700;28;4614;-56
2023/07/31 08:01:29;;;;;;;;;;;;;;;;;;5054945;28;4497;-54
2023/07/31 08:03:54;;;;;;;;;;;;;;;;;;5071541;28;4470;-55
2023/07/31 08:06:20;;;;;;;;;;;;;;;;;;5070099;28;5074;-56
2023/07/31 08:08:45;;;;;;;;;;;;;;;;;;5068537;28;4520;-56
2023/07/31 08:11:10;;;;;;;;;;;;;;;;;;5065328;28;3361;-58
2023/07/31 08:13:36;;;;;;;;;;;;;;;;;;5078111;28;5026;-55
2023/07/31 08:16:02;;;;;;;;;;;;;;;;;;5070720;28;5128;-56
2023/07/31 08:18:27;;;;;;;;;;;;;;;;;;5063570;28;4941;-61
2023/07/31 08:20:52;;;;;;;;;;;;;;;;;;5074219;28;4987;-59
2023/07/31 08:23:18;;;;;;;;;;;;;;;;;;5071360;28;1266;-57
2023/07/31 08:25:43;;;;;;;;;;;;;;;;;;5070714;28;5257;-63
2023/07/31 08:28:08;;;;;;;;;;;;;;;;;;5070000;28;5181;-63
2023/07/31 08:30:33;;;;;;;;;;;;;;;;;;5048003;28;5271;-63
2023/07/31 08:32:59;;;;;;;;;;;;;;;;;;5023475;28;5151;-55
2023/07/31 08:35:25;;;;;;;;;;;;;;;;;;5043512;28;3665;-57
2023/07/31 08:37:50;;;;;;;;;;;;;;;;;;5046501;28;5193;-53
2023/07/31 08:40:16;;;;;;;;;;;;;;;;;;5049641;28;4523;-56
2023/07/31 08:42:45;;;;;;;;;;;;;;;;;;5042381;28;4660;-55
2023/07/31 08:45:12;;;;;;;;;;;;;;;;;;5047522;28;4742;-58
2023/07/31 08:47:37;;;;;;;;;;;;;;;;;;5038569;28;3668;-58
2023/07/31 08:50:03;;;;;;;;;;;;;;;;;;5043849;28;4976;-57
2023/07/31 08:52:28;;;;;;;;;;;;;;;;;;5031770;28;5116;-62
2023/07/31 08:54:53;;;;;;;;;;;;;;;;;;5046086;28;5276;-62
2023/07/31 08:57:18;;;;;;;;;;;;;;;;;;5047931;28;5153;-61
2023/07/31 08:59:44;;;;;;;;;;;;;;;;;;5027824;28;4985;-61
2023/07/31 09:02:09;;;;;;;;;;;;;;;;;;5030618;28;3664;-61
2023/07/31 09:04:34;;;;;;;;;;;;;;;;;;5038042;28;4503;-59
2023/07/31 09:07:00;;;;;;;;;;;;;;;;;;5022899;28;5025;-60
2023/07/31 09:09:25;;;;;;;;;;;;;;;;;;5025563;28;4725;-62
2023/07/31 09:11:52;;;;;;;;;;;;;;;;;;5026811;28;4685;-60
2023/07/31 09:14:17;;;;;;;;;;;;;;;;;;5038244;28;3707;-61
2023/07/31 09:16:52;;;;;;;;;;;;;;;;;;5045003;28;5073;-62
2023/07/31 09:19:24;;;;;;;;;;;;;;;;;;5040639;28;4964;-62
2023/07/31 09:21:49;;;;;;;;;;;;;;;;;;5043438;28;4899;-59
2023/07/31 09:24:24;;;;;;;;;;;;;;;;;;5023143;28;5100;-60
2023/07/31 09:26:49;;;;;;;;;;;;;;;;;;5040525;28;5017;-61
2023/07/31 09:29:18;;;;;;;;;;;;;;;;;;5029090;28;1426;-59
2023/07/31 09:31:44;;;;;;;;;;;;;;;;;;5061200;28;4909;-60
2023/07/31 09:34:11;;;;;;;;;;;;;;;;;;5055064;28;5082;-60
2023/07/31 09:36:43;;;;;;;;;;;;;;;;;;5061150;28;5103;-59
2023/07/31 09:39:11;;;;;;;;;;;;;;;;;;5063067;28;5142;-65
2023/07/31 09:41:40;;;;;;;;;;;;;;;;;;5069165;28;2672;-70
2023/07/31 09:44:05;;;;;;;;;;;;;;;;;;5060526;28;4397;-65
2023/07/31 09:46:31;;;;;;;;;;;;;;;;;;5063221;28;4801;-63
2023/07/31 09:49:05;;;;;;;;;;;;;;;;;;5063626;28;5242;-63
2023/07/31 09:51:31;;;;;;;;;;;;;;;;;;5070580;28;4934;-65
2023/07/31 09:53:56;;;;;;;;;;;;;;;;;;5067797;28;5038;-63
2023/07/31 09:56:21;;;;;;;;;;;;;;;;;;5049097;28;3283;-62
2023/07/31 09:58:46;;;;;;;;;;;;;;;;;;5048500;28;5013;-64
2023/07/31 10:01:12;;;;;;;;;;;;;;;;;;5063406;28;5074;-64
2023/07/31 10:03:38;;;;;;;;;;;;;;;;;;5066512;28;5098;-65
2023/07/31 10:06:03;;;;;;;;;;;;;;;;;;5044820;28;4549;-57
2023/07/31 10:08:30;;;;;;;;;;;;;;;;;;5064425;28;3870;-57
2023/07/31 10:10:55;;;;;;;;;;;;;;;;;;5065886;28;4947;-54
2023/07/31 10:13:22;;;;;;;;;;;;;;;;;;5048896;28;5006;-56
2023/07/31 10:15:47;;;;;;;;;;;;;;;;;;5049167;28;4680;-54
2023/07/31 10:18:12;;;;;;;;;;;;;;;;;;5065281;28;4852;-57
2023/07/31 10:20:38;;;;;;;;;;;;;;;;;;5061193;28;3701;-55
2023/07/31 10:23:03;;;;;;;;;;;;;;;;;;5047747;28;5847;-54
2023/07/31 10:25:28;;;;;;;;;;;;;;;;;;5053461;28;5000;-55
2023/07/31 10:27:54;;;;;;;;;;;;;;;;;;5062313;28;4891;-55
2023/07/31 10:30:21;;;;;;;;;;;;;;;;;;5058758;28;5168;-56
2023/07/31 10:32:48;;;;;;;;;;;;;;;;;;5046841;28;5043;-55
2023/07/31 10:35:13;;;;;;;;;;;;;;;;;;5046379;28;3605;-56
2023/07/31 10:37:42;;;;;;;;;;;;;;;;;;5049383;28;5279;-56
2023/07/31 10:40:07;;;;;;;;;;;;;;;;;;5067604;28;5118;-56
2023/07/31 10:42:37;;;;;;;;;;;;;;;;;;5062702;28;4988;-56
2023/07/31 10:45:05;;;;;;;;;;;;;;;;;;5067899;28;5237;-55
2023/07/31 10:47:30;;;;;;;;;;;;;;;;;;5049303;28;1159;-56
2023/07/31 10:50:34;;;;;;;;;;;;;;;;;;5065777;28;5213;-57
2023/07/31 10:53:00;;;;;;;;;;;;;;;;;;5006373;28;5177;-56
2023/07/31 10:55:27;;;;;;;;;;;;;;;;;;5048938;28;4897;-56
2023/07/31 10:57:52;;;;;;;;;;;;;;;;;;5066053;28;4977;-57
2023/07/31 11:00:22;;;;;;;;;;;;;;;;;;5064500;28;5005;-56
2023/07/31 11:03:16;;;;;;;;;;;;;;;;;;5066483;28;5119;-56
2023/07/31 11:05:44;;;;;;;;;;;;;;;;;;5045792;28;1379;-57
2023/07/31 11:08:13;;;;;;;;;;;;;;;;;;5067787;28;4940;-56
2023/07/31 11:10:38;;;;;;;;;;;;;;;;;;5065827;28;5291;-56
2023/07/31 11:13:04;;;;;;;;;;;;;;;;;;5067136;28;5147;-56
2023/07/31 11:15:29;;;;;;;;;;;;;;;;;;5066972;28;5163;-56
2023/07/31 11:17:57;;;;;;;;;;;;;;;;;;5067358;28;4862;-56
2023/07/31 11:20:23;;;;;;;;;;;;;;;;;;5065741;28;1148;-55
2023/07/31 11:22:49;;;;;;;;;;;;;;;;;;5066829;28;5079;-57
2023/07/31 11:25:14;;;;;;;;;;;;;;;;;;5067045;28;5466;-56
2023/07/31 11:27:43;;;;;;;;;;;;;;;;;;5066975;28;5023;-56
2023/07/31 11:30:09;;;;;;;;;;;;;;;;;;5063110;28;5119;-56
2023/07/31 11:32:36;;;;;;;;;;;;;;;;;;5065563;28;1162;-56
2023/07/31 11:35:01;;;;;;;;;;;;;;;;;;5072340;28;5846;-57
2023/07/31 11:37:38;;;;;;;;;;;;;;;;;;5073453;28;5027;-56
2023/07/31 11:40:03;;;;;;;;;;;;;;;;;;5062916;28;4944;-56
2023/07/31 11:42:29;;;;;;;;;;;;;;;;;;5071527;28;4544;-55
2023/07/31 11:44:54;;;;;;;;;;;;;;;;;;5073138;28;4974;-57
2023/07/31 11:47:19;;;;;;;;;;;;;;;;;;5071944;28;1156;-56
2023/07/31 11:49:45;;;;;;;;;;;;;;;;;;5072564;28;4967;-56
2023/07/31 11:52:10;;;;;;;;;;;;;;;;;;5073563;28;5308;-55
2023/07/31 11:54:35;;;;;;;;;;;;;;;;;;5055942;28;5147;-54
2023/07/31 11:57:01;;;;;;;;;;;;;;;;;;5055946;28;4427;-57
2023/07/31 11:59:26;;;;;;;;;;;;;;;;;;5054912;28;2231;-55
2023/07/31 12:01:53;;;;;;;;;;;;;;;;;;5055729;28;5011;-56
2023/07/31 12:04:19;;;;;;;;;;;;;;;;;;5055403;28;4463;-56
2023/07/31 12:06:44;;;;;;;;;;;;;;;;;;5073698;28;4989;-57
2023/07/31 12:09:10;;;;;;;;;;;;;;;;;;5073205;28;5347;-56
2023/07/31 12:11:45;;;;;;;;;;;;;;;;;;5074168;28;1966;-57
2023/07/31 12:14:21;;;;;;;;;;;;;;;;;;5055196;28;4945;-57
2023/07/31 12:16:46;;;;;;;;;;;;;;;;;;5072752;28;4981;-55
2023/07/31 12:19:11;;;;;;;;;;;;;;;;;;5073555;28;4943;-56
2023/07/31 12:21:37;;;;;;;;;;;;;;;;;;5072962;28;5082;-56
2023/07/31 12:24:02;;;;;;;;;;;;;;;;;;5073453;28;5010;-57
2023/07/31 12:26:33;;;;;;;;;;;;;;;;;;5055817;28;1183;-57
2023/07/31 12:28:58;;;;;;;;;;;;;;;;;;5071544;28;4802;-57
2023/07/31 12:31:23;;;;;;;;;;;;;;;;;;5069580;28;5134;-57
2023/07/31 12:33:49;;;;;;;;;;;;;;;;;;5055060;28;5514;-56
2023/07/31 12:36:15;;;;;;;;;;;;;;;;;;5072743;28;5533;-56
2023/07/31 12:38:41;;;;;;;;;;;;;;;;;;5040214;28;1173;-56
2023/07/31 12:41:06;;;;;;;;;;;;;;;;;;5073135;28;5027;-56
2023/07/31 12:43:32;;;;;;;;;;;;;;;;;;5070859;28;5079;-56
2023/07/31 12:45:57;;;;;;;;;;;;;;;;;;5070217;28;5257;-56
2023/07/31 12:48:22;;;;;;;;;;;;;;;;;;5069610;28;4527;-56
2023/07/31 12:50:48;;;;;;;;;;;;;;;;;;5069817;28;5033;-55
2023/07/31 12:53:13;;;;;;;;;;;;;;;;;;5069496;28;1247;-57
2023/07/31 12:55:38;;;;;;;;;;;;;;;;;;5069590;28;5148;-56
2023/07/31 12:58:03;;;;;;;;;;;;;;;;;;5069509;28;5059;-56
2023/07/31 13:00:29;;;;;;;;;;;;;;;;;;5068396;28;4981;-56
2023/07/31 13:02:54;;;;;;;;;;;;;;;;;;5069207;28;5239;-57
2023/07/31 13:05:20;;;;;;;;;;;;;;;;;;5070167;28;1206;-57
2023/07/31 13:07:45;;;;;;;;;;;;;;;;;;5069450;28;5471;-56
2023/07/31 13:10:10;;;;;;;;;;;;;;;;;;5068979;28;5084;-57
2023/07/31 13:12:36;;;;;;;;;;;;;;;;;;5068845;28;5295;-57
2023/07/31 13:15:01;;;;;;;;;;;;;;;;;;5034512;28;5157;-56
2023/07/31 13:17:26;;;;;;;;;;;;;;;;;;5069918;28;1222;-57
2023/07/31 13:19:52;;;;;;;;;;;;;;;;;;5069098;28;4708;-57
2023/07/31 13:22:17;;;;;;;;;;;;;;;;;;5069127;28;4977;-57
2023/07/31 13:24:42;;;;;;;;;;;;;;;;;;5069143;28;4648;-57
2023/07/31 13:27:07;;;;;;;;;;;;;;;;;;5068989;28;5178;-56
2023/07/31 13:29:33;;;;;;;;;;;;;;;;;;5066251;28;1630;-56
2023/07/31 13:31:58;;;;;;;;;;;;;;;;;;5068745;28;5045;-58
2023/07/31 13:34:23;;;;;;;;;;;;;;;;;;5069257;28;5228;-56
2023/07/31 13:36:49;;;;;;;;;;;;;;;;;;5069477;28;4984;-56
2023/07/31 13:39:14;;;;;;;;;;;;;;;;;;5071244;28;5076;-57
2023/07/31 13:41:39;;;;;;;;;;;;;;;;;;5069976;28;1132;-56
2023/07/31 13:44:04;;;;;;;;;;;;;;;;;;5067009;28;5022;-56
2023/07/31 13:46:30;;;;;;;;;;;;;;;;;;5068220;28;4823;-57
2023/07/31 13:48:55;;;;;;;;;;;;;;;;;;5068908;28;4670;-57
2023/07/31 13:51:21;;;;;;;;;;;;;;;;;;5067217;28;4919;-56
2023/07/31 13:53:46;;;;;;;;;;;;;;;;;;5051283;28;4741;-56
2023/07/31 13:56:11;;;;;;;;;;;;;;;;;;5050703;28;1113;-56
2023/07/31 13:58:37;;;;;;;;;;;;;;;;;;5068475;28;4474;-56
2023/07/31 14:01:03;;;;;;;;;;;;;;;;;;5067268;28;5063;-57
2023/07/31 14:03:28;;;;;;;;;;;;;;;;;;5068787;28;5055;-58
2023/07/31 14:05:53;;;;;;;;;;;;;;;;;;5068052;28;5030;-56
2023/07/31 14:08:18;;;;;;;;;;;;;;;;;;5069152;28;1340;-56
2023/07/31 14:10:44;;;;;;;;;;;;;;;;;;5068263;28;4961;-56
2023/07/31 14:13:09;;;;;;;;;;;;;;;;;;5068016;28;5111;-57
2023/07/31 14:15:35;;;;;;;;;;;;;;;;;;5068299;28;5135;-55
2023/07/31 14:18:01;;;;;;;;;;;;;;;;;;5068275;28;5700;-56
2023/07/31 14:20:26;;;;;;;;;;;;;;;;;;5050904;28;1152;-56
2023/07/31 14:22:51;;;;;;;;;;;;;;;;;;5068031;28;4948;-57
2023/07/31 14:25:16;;;;;;;;;;;;;;;;;;5068143;28;5008;-57
2023/07/31 14:27:42;;;;;;;;;;;;;;;;;;5068379;28;5046;-56
2023/07/31 14:30:07;;;;;;;;;;;;;;;;;;5064753;28;5055;-56
2023/07/31 14:32:33;;;;;;;;;;;;;;;;;;5068013;28;1131;-56
2023/07/31 14:34:58;;;;;;;;;;;;;;;;;;5067360;28;4991;-58
2023/07/31 14:37:25;;;;;;;;;;;;;;;;;;5067613;28;4446;-56
2023/07/31 14:39:51;;;;;;;;;;;;;;;;;;5067629;28;5113;-57
2023/07/31 14:42:18;;;;;;;;;;;;;;;;;;5067021;28;5067;-58
2023/07/31 14:44:43;;;;;;;;;;;;;;;;;;5065942;28;5112;-56
2023/07/31 14:47:08;;;;;;;;;;;;;;;;;;5067146;28;2504;-56
2023/07/31 14:49:33;;;;;;;;;;;;;;;;;;5066756;28;4439;-56
2023/07/31 14:51:59;;;;;;;;;;;;;;;;;;5067374;28;5169;-56
2023/07/31 14:54:24;;;;;;;;;;;;;;;;;;5049726;28;5022;-56
2023/07/31 14:56:49;;;;;;;;;;;;;;;;;;5049297;28;5036;-58
2023/07/31 14:59:15;;;;;;;;;;;;;;;;;;5066696;28;1524;-56
2023/07/31 15:01:40;;;;;;;;;;;;;;;;;;5067433;28;5061;-57
2023/07/31 15:04:05;;;;;;;;;;;;;;;;;;5067340;28;5097;-56
2023/07/31 15:06:31;;;;;;;;;;;;;;;;;;5067096;28;4849;-56
2023/07/31 15:08:56;;;;;;;;;;;;;;;;;;5066672;28;5110;-56
2023/07/31 15:11:21;;;;;;;;;;;;;;;;;;5067740;28;1993;-56
2023/07/31 15:13:46;;;;;;;;;;;;;;;;;;5067260;28;4898;-57
2023/07/31 15:16:12;;;;;;;;;;;;;;;;;;5066812;28;5045;-57
2023/07/31 15:18:37;;;;;;;;;;;;;;;;;;5067408;28;5063;-56
2023/07/31 15:21:04;;;;;;;;;;;;;;;;;;5067826;28;4469;-57
2023/07/31 15:23:29;;;;;;;;;;;;;;;;;;5067499;28;1038;-57
2023/07/31 15:25:54;;;;;;;;;;;;;;;;;;5066991;28;4664;-57
2023/07/31 15:28:19;;;;;;;;;;;;;;;;;;5062036;28;5187;-57
2023/07/31 15:30:45;;;;;;;;;;;;;;;;;;5062691;28;5070;-57
2023/07/31 15:33:10;;;;;;;;;;;;;;;;;;5048993;28;4780;-57
2023/07/31 15:35:35;;;;;;;;;;;;;;;;;;5067488;28;1105;-56
2023/07/31 15:38:00;;;;;;;;;;;;;;;;;;5066591;28;5701;-57
2023/07/31 15:40:26;;;;;;;;;;;;;;;;;;5067343;28;5120;-56
2023/07/31 15:42:51;;;;;;;;;;;;;;;;;;5062935;28;4935;-56
2023/07/31 15:45:16;;;;;;;;;;;;;;;;;;5066291;28;5039;-57
2023/07/31 15:47:41;;;;;;;;;;;;;;;;;;5060947;28;1321;-57
2023/07/31 15:50:07;;;;;;;;;;;;;;;;;;5066523;28;4990;-55
2023/07/31 15:52:32;;;;;;;;;;;;;;;;;;5066522;28;5018;-55
2023/07/31 15:54:57;;;;;;;;;;;;;;;;;;5067128;28;4878;-57
2023/07/31 15:57:22;;;;;;;;;;;;;;;;;;5048407;28;5013;-56
2023/07/31 15:59:48;;;;;;;;;;;;;;;;;;5066636;28;4955;-56
2023/07/31 16:02:13;;;;;;;;;;;;;;;;;;5066936;28;1373;-57
2023/07/31 16:04:40;;;;;;;;;;;;;;;;;;5067064;28;4578;-56
2023/07/31 16:07:05;;;;;;;;;;;;;;;;;;5066573;28;5099;-56
2023/07/31 16:09:30;;;;;;;;;;;;;;;;;;5063630;28;4958;-57
2023/07/31 16:11:55;;;;;;;;;;;;;;;;;;5066360;28;4634;-57
2023/07/31 16:14:21;;;;;;;;;;;;;;;;;;5067069;28;1484;-57
2023/07/31 16:16:49;;;;;;;;;;;;;;;;;;5066799;28;4998;-57
2023/07/31 16:19:14;;;;;;;;;;;;;;;;;;5066079;28;4402;-57
2023/07/31 16:21:39;;;;;;;;;;;;;;;;;;5068503;28;4905;-57
2023/07/31 16:24:04;;;;;;;;;;;;;;;;;;5070524;28;5007;-57
2023/07/31 16:26:30;;;;;;;;;;;;;;;;;;5070932;28;1151;-57
2023/07/31 16:28:55;;;;;;;;;;;;;;;;;;5069761;28;5005;-57
2023/07/31 16:31:21;;;;;;;;;;;;;;;;;;5067577;28;4471;-56
2023/07/31 16:33:46;;;;;;;;;;;;;;;;;;5070227;28;4489;-56
2023/07/31 16:36:11;;;;;;;;;;;;;;;;;;5064714;28;4599;-57
2023/07/31 16:38:36;;;;;;;;;;;;;;;;;;5070765;28;1768;-57
2023/07/31 16:41:02;;;;;;;;;;;;;;;;;;5070044;28;4584;-57
2023/07/31 16:43:28;;;;;;;;;;;;;;;;;;5067507;28;4958;-57
2023/07/31 16:45:54;;;;;;;;;;;;;;;;;;5066844;28;5074;-57
2023/07/31 16:48:19;;;;;;;;;;;;;;;;;;5068052;28;4682;-57
2023/07/31 16:50:45;;;;;;;;;;;;;;;;;;5065009;28;5152;-57
2023/07/31 16:53:10;;;;;;;;;;;;;;;;;;5074041;28;1104;-56